sensor_id;sensor_type;location;lat;lon;timestamp;pressure;altitude;pressure_sealevel;temperature;humidity
64933;BME280;51446;53.850;10.662;2023-03-16T00:00:46;101923.28;;;-0.13;100.00
64933;BME280;51446;53.850;10.662;2023-03-16T00:03:12;101935.31;;;-0.24;100.00
64933;BME280;51446;53.850;10.662;2023-03-16T00:05:51;101934.03;;;-0.29;100.00
64933;BME280;51446;53.850;10.662;2023-03-16T00:08:17;101927.53;;;-0.36;100.00
64933;BME280;51446;53.850;10.662;2023-03-16T00:10:43;101936.16;;;-0.35;100.00
64933;BME280;51446;53.850;10.662;2023-03-16T00:13:16;101939.66;;;-0.34;100.00
64933;BME280;51446;53.850;10.662;2023-03-16T00:15:53;101935.91;;;-0.38;100.00
64933;BME280;51446;53.850;10.662;2023-03-16T00:18:19;101930.28;;;-0.44;100.00
64933;BME280;51446;53.850;10.662;2023-03-16T00:20:50;101925.53;;;-0.50;100.00
64933;BME280;51446;53.850;10.662;2023-03-16T00:23:15;101926.31;;;-0.51;100.00
64933;BME280;51446;53.850;10.662;2023-03-16T00:25:41;101932.56;;;-0.37;100.00
64933;BME280;51446;53.850;10.662;2023-03-16T00:28:06;101935.78;;;-0.40;100.00
64933;BME280;51446;53.850;10.662;2023-03-16T00:30:31;101934.94;;;-0.50;100.00
64933;BME280;51446;53.850;10.662;2023-03-16T00:32:57;101942.34;;;-0.11;100.00
64933;BME280;51446;53.850;10.662;2023-03-16T00:35:22;101939.53;;;-0.14;100.00
64933;BME280;51446;53.850;10.662;2023-03-16T00:37:48;101943.16;;;-0.22;100.00
64933;BME280;51446;53.850;10.662;2023-03-16T00:40:13;101945.03;;;-0.09;100.00
64933;BME280;51446;53.850;10.662;2023-03-16T00:42:39;101952.00;;;-0.08;100.00
64933;BME280;51446;53.850;10.662;2023-03-16T00:45:05;101956.28;;;-0.19;100.00
64933;BME280;51446;53.850;10.662;2023-03-16T00:47:32;101950.56;;;-0.27;100.00
64933;BME280;51446;53.850;10.662;2023-03-16T00:49:58;101951.19;;;-0.29;100.00
64933;BME280;51446;53.850;10.662;2023-03-16T00:52:25;101953.34;;;-0.24;100.00
64933;BME280;51446;53.850;10.662;2023-03-16T00:54:52;101951.63;;;-0.35;100.00
64933;BME280;51446;53.850;10.662;2023-03-16T00:57:19;101949.03;;;-0.35;100.00
64933;BME280;51446;53.850;10.662;2023-03-16T00:59:46;101956.00;;;-0.34;100.00
64933;BME280;51446;53.850;10.662;2023-03-16T01:02:13;101953.25;;;-0.58;100.00
64933;BME280;51446;53.850;10.662;2023-03-16T01:04:39;101959.97;;;-0.60;100.00
64933;BME280;51446;53.850;10.662;2023-03-16T01:07:07;101954.66;;;-0.29;100.00
64933;BME280;51446;53.850;10.662;2023-03-16T01:09:33;101955.22;;;-0.11;100.00
64933;BME280;51446;53.850;10.662;2023-03-16T01:12:06;101958.69;;;-0.10;100.00
64933;BME280;51446;53.850;10.662;2023-03-16T01:14:33;101959.38;;;-0.13;100.00
64933;BME280;51446;53.850;10.662;2023-03-16T01:17:02;101957.50;;;-0.26;100.00
64933;BME280;51446;53.850;10.662;2023-03-16T01:19:28;101952.38;;;-0.36;100.00
64933;BME280;51446;53.850;10.662;2023-03-16T01:21:54;101959.63;;;-0.42;100.00
64933;BME280;51446;53.850;10.662;2023-03-16T01:24:19;101950.66;;;-0.47;100.00
64933;BME280;51446;53.850;10.662;2023-03-16T01:26:45;101943.81;;;-0.79;100.00
64933;BME280;51446;53.850;10.662;2023-03-16T01:29:10;101949.34;;;-0.75;100.00
64933;BME280;51446;53.850;10.662;2023-03-16T01:31:37;101950.47;;;-0.71;100.00
64933;BME280;51446;53.850;10.662;2023-03-16T01:34:02;101932.03;;;-0.88;100.00
64933;BME280;51446;53.850;10.662;2023-03-16T01:36:28;101940.34;;;-0.80;100.00
64933;BME280;51446;53.850;10.662;2023-03-16T01:38:54;101949.81;;;-0.91;100.00
64933;BME280;51446;53.850;10.662;2023-03-16T01:41:19;101944.38;;;-0.94;100.00
64933;BME280;51446;53.850;10.662;2023-03-16T01:43:44;101947.09;;;-0.92;100.00
64933;BME280;51446;53.850;10.662;2023-03-16T01:46:21;101953.66;;;-0.53;100.00
64933;BME280;51446;53.850;10.662;2023-03-16T01:49:11;101960.75;;;-0.61;100.00
64933;BME280;51446;53.850;10.662;2023-03-16T01:54:19;101951.72;;;-0.98;100.00
64933;BME280;51446;53.850;10.662;2023-03-16T01:57:22;101948.16;;;-0.68;100.00
64933;BME280;51446;53.850;10.662;2023-03-16T02:02:43;101956.75;;;-0.57;100.00
64933;BME280;51446;53.850;10.662;2023-03-16T02:05:15;101952.22;;;-0.82;100.00
64933;BME280;51446;53.850;10.662;2023-03-16T02:07:46;101950.59;;;-1.02;100.00
64933;BME280;51446;53.850;10.662;2023-03-16T02:10:13;101944.94;;;-1.08;100.00
64933;BME280;51446;53.850;10.662;2023-03-16T02:12:39;101956.03;;;-1.19;100.00
64933;BME280;51446;53.850;10.662;2023-03-16T02:15:05;101939.22;;;-1.36;100.00
64933;BME280;51446;53.850;10.662;2023-03-16T02:17:33;101959.00;;;-1.35;100.00
64933;BME280;51446;53.850;10.662;2023-03-16T02:20:07;101954.63;;;-1.26;100.00
64933;BME280;51446;53.850;10.662;2023-03-16T02:22:40;101960.28;;;-1.30;100.00
64933;BME280;51446;53.850;10.662;2023-03-16T02:25:07;101948.56;;;-1.37;100.00
64933;BME280;51446;53.850;10.662;2023-03-16T02:27:48;101966.84;;;-1.24;100.00
64933;BME280;51446;53.850;10.662;2023-03-16T02:30:19;101951.66;;;-1.20;100.00
64933;BME280;51446;53.850;10.662;2023-03-16T02:32:47;101952.72;;;-1.39;100.00
64933;BME280;51446;53.850;10.662;2023-03-16T02:35:13;101963.75;;;-1.30;100.00
64933;BME280;51446;53.850;10.662;2023-03-16T02:37:39;101949.09;;;-1.51;100.00
64933;BME280;51446;53.850;10.662;2023-03-16T02:40:25;101963.88;;;-1.08;100.00
64933;BME280;51446;53.850;10.662;2023-03-16T02:43:18;101953.09;;;-0.81;100.00
64933;BME280;51446;53.850;10.662;2023-03-16T02:45:49;101961.38;;;-0.53;100.00
64933;BME280;51446;53.850;10.662;2023-03-16T02:48:45;101956.81;;;-0.67;100.00
64933;BME280;51446;53.850;10.662;2023-03-16T02:51:12;101952.91;;;-0.95;100.00
64933;BME280;51446;53.850;10.662;2023-03-16T02:53:38;101960.78;;;-1.03;100.00
64933;BME280;51446;53.850;10.662;2023-03-16T02:56:03;101953.19;;;-1.23;100.00
64933;BME280;51446;53.850;10.662;2023-03-16T02:58:29;101949.38;;;-1.38;100.00
64933;BME280;51446;53.850;10.662;2023-03-16T03:00:54;101959.78;;;-1.36;100.00
64933;BME280;51446;53.850;10.662;2023-03-16T03:03:20;101957.22;;;-1.36;100.00
64933;BME280;51446;53.850;10.662;2023-03-16T03:05:46;101961.72;;;-1.34;100.00
64933;BME280;51446;53.850;10.662;2023-03-16T03:08:12;101958.25;;;-1.45;100.00
64933;BME280;51446;53.850;10.662;2023-03-16T03:10:37;101956.31;;;-1.58;100.00
64933;BME280;51446;53.850;10.662;2023-03-16T03:13:03;101955.16;;;-1.51;100.00
64933;BME280;51446;53.850;10.662;2023-03-16T03:15:28;101953.34;;;-1.52;100.00
64933;BME280;51446;53.850;10.662;2023-03-16T03:17:53;101956.31;;;-1.58;100.00
64933;BME280;51446;53.850;10.662;2023-03-16T03:20:19;101959.66;;;-1.69;100.00
64933;BME280;51446;53.850;10.662;2023-03-16T03:22:47;101961.34;;;-1.69;100.00
64933;BME280;51446;53.850;10.662;2023-03-16T03:25:15;101962.34;;;-1.78;100.00
64933;BME280;51446;53.850;10.662;2023-03-16T03:27:41;101968.00;;;-1.92;100.00
64933;BME280;51446;53.850;10.662;2023-03-16T03:30:08;101963.53;;;-1.74;100.00
64933;BME280;51446;53.850;10.662;2023-03-16T03:32:34;101972.50;;;-1.69;100.00
64933;BME280;51446;53.850;10.662;2023-03-16T03:34:59;101972.91;;;-1.64;100.00
64933;BME280;51446;53.850;10.662;2023-03-16T03:37:25;101968.16;;;-1.60;100.00
64933;BME280;51446;53.850;10.662;2023-03-16T03:39:50;101973.06;;;-1.63;100.00
64933;BME280;51446;53.850;10.662;2023-03-16T03:42:17;101966.59;;;-1.58;100.00
64933;BME280;51446;53.850;10.662;2023-03-16T03:44:42;101959.94;;;-1.55;100.00
64933;BME280;51446;53.850;10.662;2023-03-16T03:47:08;101962.63;;;-1.33;100.00
64933;BME280;51446;53.850;10.662;2023-03-16T03:49:33;101956.13;;;-1.08;100.00
64933;BME280;51446;53.850;10.662;2023-03-16T03:51:58;101969.25;;;-1.05;100.00
64933;BME280;51446;53.850;10.662;2023-03-16T03:54:26;101954.78;;;-1.35;100.00
64933;BME280;51446;53.850;10.662;2023-03-16T03:56:51;101967.13;;;-1.31;100.00
64933;BME280;51446;53.850;10.662;2023-03-16T03:59:17;101969.69;;;-1.31;100.00
64933;BME280;51446;53.850;10.662;2023-03-16T04:01:42;101962.50;;;-1.35;100.00
64933;BME280;51446;53.850;10.662;2023-03-16T04:04:07;101956.03;;;-1.19;100.00
64933;BME280;51446;53.850;10.662;2023-03-16T04:06:32;101970.06;;;-1.16;100.00
64933;BME280;51446;53.850;10.662;2023-03-16T04:08:58;101962.72;;;-0.68;100.00
64933;BME280;51446;53.850;10.662;2023-03-16T04:11:23;101967.66;;;-0.17;100.00
64933;BME280;51446;53.850;10.662;2023-03-16T04:13:50;101968.53;;;-0.16;100.00
64933;BME280;51446;53.850;10.662;2023-03-16T04:16:16;101965.00;;;-0.07;100.00
64933;BME280;51446;53.850;10.662;2023-03-16T04:18:41;101962.41;;;-0.07;100.00
64933;BME280;51446;53.850;10.662;2023-03-16T04:21:12;101973.50;;;-0.08;100.00
64933;BME280;51446;53.850;10.662;2023-03-16T04:23:38;101963.75;;;0.10;100.00
64933;BME280;51446;53.850;10.662;2023-03-16T04:26:03;101962.34;;;0.04;100.00
64933;BME280;51446;53.850;10.662;2023-03-16T04:28:30;101959.59;;;-0.10;100.00
64933;BME280;51446;53.850;10.662;2023-03-16T04:31:06;101957.16;;;-0.08;100.00
64933;BME280;51446;53.850;10.662;2023-03-16T04:33:33;101962.09;;;-0.22;100.00
64933;BME280;51446;53.850;10.662;2023-03-16T04:35:58;101964.44;;;-0.25;100.00
64933;BME280;51446;53.850;10.662;2023-03-16T04:38:24;101967.72;;;-0.60;100.00
64933;BME280;51446;53.850;10.662;2023-03-16T04:40:50;101958.41;;;-0.58;100.00
64933;BME280;51446;53.850;10.662;2023-03-16T04:43:15;101961.44;;;-0.41;100.00
64933;BME280;51446;53.850;10.662;2023-03-16T04:45:41;101967.06;;;-0.35;100.00
64933;BME280;51446;53.850;10.662;2023-03-16T04:48:06;101962.03;;;-0.33;100.00
64933;BME280;51446;53.850;10.662;2023-03-16T04:50:31;101967.03;;;-0.03;100.00
64933;BME280;51446;53.850;10.662;2023-03-16T04:52:57;101966.38;;;-0.22;100.00
64933;BME280;51446;53.850;10.662;2023-03-16T04:55:22;101967.50;;;-0.41;100.00
64933;BME280;51446;53.850;10.662;2023-03-16T04:57:47;101968.03;;;-0.77;100.00
64933;BME280;51446;53.850;10.662;2023-03-16T05:00:13;101972.22;;;-1.10;100.00
64933;BME280;51446;53.850;10.662;2023-03-16T05:02:48;101976.09;;;-1.26;100.00
64933;BME280;51446;53.850;10.662;2023-03-16T05:05:13;101975.63;;;-1.42;100.00
64933;BME280;51446;53.850;10.662;2023-03-16T05:07:39;101979.09;;;-1.52;100.00
64933;BME280;51446;53.850;10.662;2023-03-16T05:10:06;101975.88;;;-1.60;100.00
64933;BME280;51446;53.850;10.662;2023-03-16T05:12:32;101976.13;;;-1.67;100.00
64933;BME280;51446;53.850;10.662;2023-03-16T05:14:57;101971.50;;;-1.71;100.00
64933;BME280;51446;53.850;10.662;2023-03-16T05:17:22;101981.91;;;-1.69;100.00
64933;BME280;51446;53.850;10.662;2023-03-16T05:19:48;101978.97;;;-1.74;100.00
64933;BME280;51446;53.850;10.662;2023-03-16T05:22:13;101976.91;;;-1.68;100.00
64933;BME280;51446;53.850;10.662;2023-03-16T05:24:38;101971.00;;;-1.77;100.00
64933;BME280;51446;53.850;10.662;2023-03-16T05:27:03;101972.78;;;-1.66;100.00
64933;BME280;51446;53.850;10.662;2023-03-16T05:29:30;101963.53;;;-1.64;100.00
64933;BME280;51446;53.850;10.662;2023-03-16T05:31:56;101967.63;;;-1.66;100.00
64933;BME280;51446;53.850;10.662;2023-03-16T05:34:22;101972.00;;;-1.65;100.00
64933;BME280;51446;53.850;10.662;2023-03-16T05:36:47;101977.53;;;-1.50;100.00
64933;BME280;51446;53.850;10.662;2023-03-16T05:39:12;101978.06;;;-1.54;100.00
64933;BME280;51446;53.850;10.662;2023-03-16T05:41:38;101978.31;;;-1.41;100.00
64933;BME280;51446;53.850;10.662;2023-03-16T05:44:03;101981.13;;;-1.07;100.00
64933;BME280;51446;53.850;10.662;2023-03-16T05:46:29;101981.09;;;-1.17;100.00
64933;BME280;51446;53.850;10.662;2023-03-16T05:48:54;101985.00;;;-0.69;100.00
64933;BME280;51446;53.850;10.662;2023-03-16T05:51:19;101981.75;;;-0.56;100.00
64933;BME280;51446;53.850;10.662;2023-03-16T05:53:44;101989.25;;;-0.37;100.00
64933;BME280;51446;53.850;10.662;2023-03-16T05:56:11;101979.19;;;-0.12;100.00
64933;BME280;51446;53.850;10.662;2023-03-16T05:58:36;101976.09;;;0.14;100.00
64933;BME280;51446;53.850;10.662;2023-03-16T06:01:01;101969.59;;;0.54;100.00
64933;BME280;51446;53.850;10.662;2023-03-16T06:03:27;101972.03;;;1.21;100.00
64933;BME280;51446;53.850;10.662;2023-03-16T06:05:52;101969.81;;;1.75;100.00
64933;BME280;51446;53.850;10.662;2023-03-16T06:08:17;101978.06;;;1.46;100.00
64933;BME280;51446;53.850;10.662;2023-03-16T06:10:45;101991.22;;;1.01;100.00
64933;BME280;51446;53.850;10.662;2023-03-16T06:13:11;101993.41;;;0.73;100.00
64933;BME280;51446;53.850;10.662;2023-03-16T06:15:37;102001.66;;;0.91;100.00
64933;BME280;51446;53.850;10.662;2023-03-16T06:18:02;102001.22;;;0.97;100.00
64933;BME280;51446;53.850;10.662;2023-03-16T06:20:28;101995.16;;;1.08;100.00
64933;BME280;51446;53.850;10.662;2023-03-16T06:22:53;101988.38;;;0.75;100.00
64933;BME280;51446;53.850;10.662;2023-03-16T06:25:18;101992.31;;;0.69;100.00
64933;BME280;51446;53.850;10.662;2023-03-16T06:27:43;101994.06;;;0.59;100.00
64933;BME280;51446;53.850;10.662;2023-03-16T06:30:12;101988.13;;;0.60;100.00
64933;BME280;51446;53.850;10.662;2023-03-16T06:32:38;101992.00;;;0.43;100.00
64933;BME280;51446;53.850;10.662;2023-03-16T06:35:06;101991.81;;;0.63;100.00
64933;BME280;51446;53.850;10.662;2023-03-16T06:37:32;101986.06;;;1.13;100.00
64933;BME280;51446;53.850;10.662;2023-03-16T06:39:58;101978.53;;;1.89;100.00
64933;BME280;51446;53.850;10.662;2023-03-16T06:42:23;101978.44;;;2.76;100.00
64933;BME280;51446;53.850;10.662;2023-03-16T06:44:49;101972.44;;;4.13;100.00
64933;BME280;51446;53.850;10.662;2023-03-16T06:47:15;101971.72;;;4.15;100.00
64933;BME280;51446;53.850;10.662;2023-03-16T06:49:40;101973.34;;;4.57;100.00
64933;BME280;51446;53.850;10.662;2023-03-16T06:52:05;101987.03;;;4.11;100.00
64933;BME280;51446;53.850;10.662;2023-03-16T06:54:30;101983.84;;;3.60;100.00
64933;BME280;51446;53.850;10.662;2023-03-16T06:57:01;101979.75;;;2.83;100.00
64933;BME280;51446;53.850;10.662;2023-03-16T06:59:26;101982.81;;;2.39;100.00
64933;BME280;51446;53.850;10.662;2023-03-16T07:01:52;101979.69;;;2.06;100.00
64933;BME280;51446;53.850;10.662;2023-03-16T07:04:17;101978.75;;;1.92;100.00
64933;BME280;51446;53.850;10.662;2023-03-16T07:06:42;101978.56;;;1.77;100.00
64933;BME280;51446;53.850;10.662;2023-03-16T07:09:07;101974.50;;;2.18;100.00
64933;BME280;51446;53.850;10.662;2023-03-16T07:11:33;101975.44;;;2.57;100.00
64933;BME280;51446;53.850;10.662;2023-03-16T07:13:58;101975.16;;;2.66;100.00
64933;BME280;51446;53.850;10.662;2023-03-16T07:16:24;101989.56;;;3.27;100.00
64933;BME280;51446;53.850;10.662;2023-03-16T07:18:49;101986.88;;;3.26;100.00
64933;BME280;51446;53.850;10.662;2023-03-16T07:21:16;101986.69;;;3.23;100.00
64933;BME280;51446;53.850;10.662;2023-03-16T07:23:41;101991.44;;;3.03;100.00
64933;BME280;51446;53.850;10.662;2023-03-16T07:26:07;101994.13;;;2.91;100.00
64933;BME280;51446;53.850;10.662;2023-03-16T07:28:33;101998.63;;;3.34;100.00
64933;BME280;51446;53.850;10.662;2023-03-16T07:30:58;101999.91;;;3.54;100.00
64933;BME280;51446;53.850;10.662;2023-03-16T07:33:23;101982.00;;;3.30;100.00
64933;BME280;51446;53.850;10.662;2023-03-16T07:35:48;101999.09;;;3.69;100.00
64933;BME280;51446;53.850;10.662;2023-03-16T07:38:14;102000.34;;;3.89;100.00
64933;BME280;51446;53.850;10.662;2023-03-16T07:40:39;102009.56;;;4.12;100.00
64933;BME280;51446;53.850;10.662;2023-03-16T07:43:05;102007.16;;;3.87;100.00
64933;BME280;51446;53.850;10.662;2023-03-16T07:45:31;102011.88;;;3.65;100.00
64933;BME280;51446;53.850;10.662;2023-03-16T07:47:56;102016.19;;;3.52;100.00
64933;BME280;51446;53.850;10.662;2023-03-16T07:50:21;102017.66;;;3.61;100.00
64933;BME280;51446;53.850;10.662;2023-03-16T07:52:47;102021.16;;;3.75;100.00
64933;BME280;51446;53.850;10.662;2023-03-16T07:55:12;102020.34;;;3.63;100.00
64933;BME280;51446;53.850;10.662;2023-03-16T07:57:38;102027.25;;;3.62;100.00
64933;BME280;51446;53.850;10.662;2023-03-16T08:00:06;102027.16;;;3.47;100.00
64933;BME280;51446;53.850;10.662;2023-03-16T08:02:32;102014.59;;;3.40;100.00
64933;BME280;51446;53.850;10.662;2023-03-16T08:04:57;102019.28;;;3.59;100.00
64933;BME280;51446;53.850;10.662;2023-03-16T08:07:23;102022.44;;;3.82;100.00
64933;BME280;51446;53.850;10.662;2023-03-16T08:09:48;102017.50;;;4.00;100.00
64933;BME280;51446;53.850;10.662;2023-03-16T08:12:15;102018.34;;;5.30;100.00
64933;BME280;51446;53.850;10.662;2023-03-16T08:14:40;102012.72;;;6.33;100.00
64933;BME280;51446;53.850;10.662;2023-03-16T08:17:06;102009.72;;;7.11;90.26
64933;BME280;51446;53.850;10.662;2023-03-16T08:19:32;102011.56;;;7.86;81.48
64933;BME280;51446;53.850;10.662;2023-03-16T08:21:58;102016.94;;;7.89;77.44
64933;BME280;51446;53.850;10.662;2023-03-16T08:24:25;102014.78;;;7.98;75.74
64933;BME280;51446;53.850;10.662;2023-03-16T08:26:51;102018.13;;;7.58;78.55
64933;BME280;51446;53.850;10.662;2023-03-16T08:29:16;102018.69;;;7.34;78.23
64933;BME280;51446;53.850;10.662;2023-03-16T08:31:42;102014.53;;;7.74;79.15
64933;BME280;51446;53.850;10.662;2023-03-16T08:34:08;102016.56;;;7.43;79.27
64933;BME280;51446;53.850;10.662;2023-03-16T08:36:35;102016.03;;;7.51;78.17
64933;BME280;51446;53.850;10.662;2023-03-16T08:39:01;102014.06;;;7.82;74.13
64933;BME280;51446;53.850;10.662;2023-03-16T08:41:26;102011.97;;;8.13;74.85
64933;BME280;51446;53.850;10.662;2023-03-16T08:43:54;102008.56;;;8.53;69.63
64933;BME280;51446;53.850;10.662;2023-03-16T08:46:20;102001.88;;;8.40;70.06
64933;BME280;51446;53.850;10.662;2023-03-16T08:48:46;101990.56;;;7.82;71.45
64933;BME280;51446;53.850;10.662;2023-03-16T08:51:12;102002.19;;;7.71;76.71
64933;BME280;51446;53.850;10.662;2023-03-16T08:53:37;102007.53;;;6.84;81.98
64933;BME280;51446;53.850;10.662;2023-03-16T08:56:04;102007.44;;;6.83;82.71
64933;BME280;51446;53.850;10.662;2023-03-16T08:58:34;102008.63;;;6.71;83.45
64933;BME280;51446;53.850;10.662;2023-03-16T09:01:00;102004.59;;;6.78;85.27
64933;BME280;51446;53.850;10.662;2023-03-16T09:03:26;102001.31;;;6.48;85.84
64933;BME280;51446;53.850;10.662;2023-03-16T09:05:53;101995.19;;;6.64;86.55
64933;BME280;51446;53.850;10.662;2023-03-16T09:08:24;102000.97;;;6.58;83.65
64933;BME280;51446;53.850;10.662;2023-03-16T09:10:49;102004.22;;;6.70;85.89
64933;BME280;51446;53.850;10.662;2023-03-16T09:13:15;101998.78;;;6.49;83.52
64933;BME280;51446;53.850;10.662;2023-03-16T09:15:40;101991.19;;;6.54;81.06
64933;BME280;51446;53.850;10.662;2023-03-16T09:18:05;101998.06;;;6.52;78.93
64933;BME280;51446;53.850;10.662;2023-03-16T09:20:31;101999.59;;;6.48;80.25
64933;BME280;51446;53.850;10.662;2023-03-16T09:22:56;101995.97;;;6.28;83.20
64933;BME280;51446;53.850;10.662;2023-03-16T09:25:23;101994.47;;;6.33;87.44
64933;BME280;51446;53.850;10.662;2023-03-16T09:27:49;101997.31;;;6.38;87.25
64933;BME280;51446;53.850;10.662;2023-03-16T09:30:14;101992.34;;;6.59;88.28
64933;BME280;51446;53.850;10.662;2023-03-16T09:32:40;101998.59;;;6.97;88.21
64933;BME280;51446;53.850;10.662;2023-03-16T09:35:06;101989.81;;;6.60;83.46
64933;BME280;51446;53.850;10.662;2023-03-16T09:37:32;101997.13;;;6.68;82.67
64933;BME280;51446;53.850;10.662;2023-03-16T09:39:58;101990.06;;;6.49;79.66
64933;BME280;51446;53.850;10.662;2023-03-16T09:42:34;101991.78;;;6.32;82.17
64933;BME280;51446;53.850;10.662;2023-03-16T09:45:17;101987.50;;;6.67;82.64
64933;BME280;51446;53.850;10.662;2023-03-16T09:47:49;101993.75;;;6.87;83.58
64933;BME280;51446;53.850;10.662;2023-03-16T09:50:23;101994.91;;;7.46;79.67
64933;BME280;51446;53.850;10.662;2023-03-16T09:53:15;101995.06;;;7.31;78.36
64933;BME280;51446;53.850;10.662;2023-03-16T09:55:45;101996.91;;;7.70;74.98
64933;BME280;51446;53.850;10.662;2023-03-16T09:58:16;101985.19;;;7.79;72.96
64933;BME280;51446;53.850;10.662;2023-03-16T10:01:12;101982.34;;;8.12;72.39
64933;BME280;51446;53.850;10.662;2023-03-16T10:03:57;101980.13;;;8.61;70.00
64933;BME280;51446;53.850;10.662;2023-03-16T10:06:26;101977.16;;;9.15;66.87
64933;BME280;51446;53.850;10.662;2023-03-16T10:09:01;101967.56;;;9.36;61.82
64933;BME280;51446;53.850;10.662;2023-03-16T10:11:50;101973.28;;;9.49;58.40
64933;BME280;51446;53.850;10.662;2023-03-16T10:17:15;101968.03;;;10.92;54.11
64933;BME280;51446;53.850;10.662;2023-03-16T10:19:46;101965.91;;;10.81;52.43
64933;BME280;51446;53.850;10.662;2023-03-16T10:22:22;101957.09;;;11.06;50.01
64933;BME280;51446;53.850;10.662;2023-03-16T10:25:34;101945.03;;;11.67;47.37
64933;BME280;51446;53.850;10.662;2023-03-16T10:28:03;101955.13;;;10.73;50.77
64933;BME280;51446;53.850;10.662;2023-03-16T10:30:31;101954.84;;;9.91;49.06
64933;BME280;51446;53.850;10.662;2023-03-16T10:33:03;101951.75;;;10.51;50.70
64933;BME280;51446;53.850;10.662;2023-03-16T10:38:42;101958.81;;;9.36;44.93
64933;BME280;51446;53.850;10.662;2023-03-16T10:43:41;101942.63;;;9.46;45.31
64933;BME280;51446;53.850;10.662;2023-03-16T10:46:09;101938.28;;;9.24;42.63
64933;BME280;51446;53.850;10.662;2023-03-16T10:48:36;101928.16;;;9.11;43.36
64933;BME280;51446;53.850;10.662;2023-03-16T10:51:14;101923.88;;;8.49;43.06
64933;BME280;51446;53.850;10.662;2023-03-16T10:53:42;101933.59;;;8.73;41.83
64933;BME280;51446;53.850;10.662;2023-03-16T10:56:18;101937.63;;;8.86;41.44
64933;BME280;51446;53.850;10.662;2023-03-16T10:58:44;101934.66;;;9.20;41.75
64933;BME280;51446;53.850;10.662;2023-03-16T11:01:17;101937.38;;;9.24;42.00
64933;BME280;51446;53.850;10.662;2023-03-16T11:03:47;101943.44;;;9.23;42.61
64933;BME280;51446;53.850;10.662;2023-03-16T11:06:26;101942.03;;;9.31;43.39
64933;BME280;51446;53.850;10.662;2023-03-16T11:08:54;101935.81;;;8.64;41.86
64933;BME280;51446;53.850;10.662;2023-03-16T11:11:29;101934.66;;;8.18;42.22
64933;BME280;51446;53.850;10.662;2023-03-16T11:13:58;101948.59;;;8.38;42.17
64933;BME280;51446;53.850;10.662;2023-03-16T11:16:36;101936.44;;;8.39;41.90
64933;BME280;51446;53.850;10.662;2023-03-16T11:19:13;101915.66;;;8.42;44.09
64933;BME280;51446;53.850;10.662;2023-03-16T11:21:44;101921.38;;;8.53;42.81
64933;BME280;51446;53.850;10.662;2023-03-16T11:32:33;101879.75;;;9.22;36.16
64933;BME280;51446;53.850;10.662;2023-03-16T11:35:00;101883.41;;;9.05;35.44
64933;BME280;51446;53.850;10.662;2023-03-16T11:37:38;101881.56;;;9.25;35.93
64933;BME280;51446;53.850;10.662;2023-03-16T11:46:09;101876.81;;;9.14;35.60
64933;BME280;51446;53.850;10.662;2023-03-16T11:48:40;101870.13;;;9.00;33.78
64933;BME280;51446;53.850;10.662;2023-03-16T11:51:34;101851.78;;;9.21;36.23
64933;BME280;51446;53.850;10.662;2023-03-16T11:56:52;101870.44;;;9.30;37.42
64933;BME280;51446;53.850;10.662;2023-03-16T12:02:12;101871.94;;;9.01;36.42
64933;BME280;51446;53.850;10.662;2023-03-16T12:08:39;101843.69;;;8.48;37.25
64933;BME280;51446;53.850;10.662;2023-03-16T12:11:13;101833.75;;;8.41;38.86
64933;BME280;51446;53.850;10.662;2023-03-16T12:17:04;101832.38;;;8.09;37.38
64933;BME280;51446;53.850;10.662;2023-03-16T12:19:10;101836.50;;;8.04;38.18
64933;BME280;51446;53.850;10.662;2023-03-16T12:21:42;101822.69;;;8.06;37.08
64933;BME280;51446;53.850;10.662;2023-03-16T12:24:21;101811.03;;;8.19;37.82
64933;BME280;51446;53.850;10.662;2023-03-16T12:26:48;101806.16;;;8.27;35.17
64933;BME280;51446;53.850;10.662;2023-03-16T12:29:37;101813.47;;;8.36;34.86
64933;BME280;51446;53.850;10.662;2023-03-16T12:32:35;101806.72;;;8.41;34.88
64933;BME280;51446;53.850;10.662;2023-03-16T12:41:05;101801.72;;;8.89;35.50
64933;BME280;51446;53.850;10.662;2023-03-16T12:43:45;101817.44;;;9.36;34.98
64933;BME280;51446;53.850;10.662;2023-03-16T12:48:55;101817.50;;;9.37;33.81
64933;BME280;51446;53.850;10.662;2023-03-16T12:51:33;101815.47;;;9.06;33.83
64933;BME280;51446;53.850;10.662;2023-03-16T12:53:59;101799.56;;;9.01;35.10
64933;BME280;51446;53.850;10.662;2023-03-16T12:56:34;101799.56;;;9.24;36.61
64933;BME280;51446;53.850;10.662;2023-03-16T12:59:03;101791.00;;;9.06;35.31
64933;BME280;51446;53.850;10.662;2023-03-16T13:01:37;101787.44;;;8.81;34.25
64933;BME280;51446;53.850;10.662;2023-03-16T13:04:10;101775.28;;;9.06;34.26
64933;BME280;51446;53.850;10.662;2023-03-16T13:06:42;101770.88;;;9.05;34.19
64933;BME280;51446;53.850;10.662;2023-03-16T13:09:10;101784.44;;;9.17;34.14
64933;BME280;51446;53.850;10.662;2023-03-16T13:11:43;101766.41;;;9.25;34.31
64933;BME280;51446;53.850;10.662;2023-03-16T13:14:36;101772.09;;;9.13;34.42
64933;BME280;51446;53.850;10.662;2023-03-16T13:19:39;101755.13;;;8.79;35.77
64933;BME280;51446;53.850;10.662;2023-03-16T13:27:37;101738.28;;;8.72;36.51
64933;BME280;51446;53.850;10.662;2023-03-16T13:30:17;101759.66;;;8.62;37.55
64933;BME280;51446;53.850;10.662;2023-03-16T13:32:43;101755.19;;;8.59;38.05
64933;BME280;51446;53.850;10.662;2023-03-16T13:35:16;101737.16;;;8.88;39.03
64933;BME280;51446;53.850;10.662;2023-03-16T13:37:44;101740.53;;;8.85;37.95
64933;BME280;51446;53.850;10.662;2023-03-16T13:40:21;101737.25;;;8.91;36.78
64933;BME280;51446;53.850;10.662;2023-03-16T13:42:49;101733.22;;;8.77;36.23